sensor_id;sensor_type;location;lat;lon;timestamp;temperature;humidity
19359;DHT22;9815;52.334;20.890;2023-11-18T00:01:34;1.30;99.90
19359;DHT22;9815;52.334;20.890;2023-11-18T00:04:03;1.30;99.90
19359;DHT22;9815;52.334;20.890;2023-11-18T00:06:32;1.10;99.90
19359;DHT22;9815;52.334;20.890;2023-11-18T00:09:00;1.20;99.90
19359;DHT22;9815;52.334;20.890;2023-11-18T00:11:29;1.20;99.90
19359;DHT22;9815;52.334;20.890;2023-11-18T00:13:57;1.20;99.90
19359;DHT22;9815;52.334;20.890;2023-11-18T00:16:26;1.20;99.90
19359;DHT22;9815;52.334;20.890;2023-11-18T00:18:58;1.20;99.90
19359;DHT22;9815;52.334;20.890;2023-11-18T00:21:26;1.20;99.90
19359;DHT22;9815;52.334;20.890;2023-11-18T00:23:55;1.10;99.90
19359;DHT22;9815;52.334;20.890;2023-11-18T00:26:24;1.20;99.90
19359;DHT22;9815;52.334;20.890;2023-11-18T00:28:58;1.20;99.90
19359;DHT22;9815;52.334;20.890;2023-11-18T00:31:27;1.10;99.90
19359;DHT22;9815;52.334;20.890;2023-11-18T00:33:58;1.30;99.90
19359;DHT22;9815;52.334;20.890;2023-11-18T00:36:26;1.30;99.90
19359;DHT22;9815;52.334;20.890;2023-11-18T00:38:55;1.30;99.90
19359;DHT22;9815;52.334;20.890;2023-11-18T00:41:23;1.20;99.90
19359;DHT22;9815;52.334;20.890;2023-11-18T00:43:52;1.20;99.90
19359;DHT22;9815;52.334;20.890;2023-11-18T00:46:21;1.20;99.90
19359;DHT22;9815;52.334;20.890;2023-11-18T00:48:49;1.20;99.90
19359;DHT22;9815;52.334;20.890;2023-11-18T00:51:19;1.20;99.90
19359;DHT22;9815;52.334;20.890;2023-11-18T00:53:47;1.20;99.90
19359;DHT22;9815;52.334;20.890;2023-11-18T00:56:16;1.20;99.90
19359;DHT22;9815;52.334;20.890;2023-11-18T00:58:45;1.20;99.90
19359;DHT22;9815;52.334;20.890;2023-11-18T01:01:13;1.30;99.90
19359;DHT22;9815;52.334;20.890;2023-11-18T01:03:44;1.20;99.90
19359;DHT22;9815;52.334;20.890;2023-11-18T01:06:13;1.20;99.90
19359;DHT22;9815;52.334;20.890;2023-11-18T01:08:45;1.20;99.90
19359;DHT22;9815;52.334;20.890;2023-11-18T01:11:16;1.20;99.90
19359;DHT22;9815;52.334;20.890;2023-11-18T01:13:47;1.20;99.90
19359;DHT22;9815;52.334;20.890;2023-11-18T01:16:15;1.10;99.90
19359;DHT22;9815;52.334;20.890;2023-11-18T01:18:44;1.10;99.90
19359;DHT22;9815;52.334;20.890;2023-11-18T01:21:13;1.10;99.90
19359;DHT22;9815;52.334;20.890;2023-11-18T01:23:45;1.10;99.90
19359;DHT22;9815;52.334;20.890;2023-11-18T01:26:14;1.00;99.90
19359;DHT22;9815;52.334;20.890;2023-11-18T01:28:42;1.10;99.90
19359;DHT22;9815;52.334;20.890;2023-11-18T01:31:12;1.20;99.90
19359;DHT22;9815;52.334;20.890;2023-11-18T01:33:41;1.10;99.90
19359;DHT22;9815;52.334;20.890;2023-11-18T01:36:12;1.10;99.90
19359;DHT22;9815;52.334;20.890;2023-11-18T01:38:40;1.10;99.90
19359;DHT22;9815;52.334;20.890;2023-11-18T01:41:10;1.10;99.90
19359;DHT22;9815;52.334;20.890;2023-11-18T01:43:38;1.20;99.90
19359;DHT22;9815;52.334;20.890;2023-11-18T01:46:09;1.20;99.90
19359;DHT22;9815;52.334;20.890;2023-11-18T01:48:40;1.20;99.90
19359;DHT22;9815;52.334;20.890;2023-11-18T01:51:10;1.10;99.90
19359;DHT22;9815;52.334;20.890;2023-11-18T01:53:40;1.10;99.90
19359;DHT22;9815;52.334;20.890;2023-11-18T01:56:12;1.20;99.90
19359;DHT22;9815;52.334;20.890;2023-11-18T01:58:42;1.20;99.90
19359;DHT22;9815;52.334;20.890;2023-11-18T02:01:10;1.10;99.90
19359;DHT22;9815;52.334;20.890;2023-11-18T02:03:43;1.20;99.90
19359;DHT22;9815;52.334;20.890;2023-11-18T02:06:13;1.20;99.90
19359;DHT22;9815;52.334;20.890;2023-11-18T02:08:43;1.20;99.90
19359;DHT22;9815;52.334;20.890;2023-11-18T02:11:20;1.20;99.90
19359;DHT22;9815;52.334;20.890;2023-11-18T02:13:53;1.20;99.90
19359;DHT22;9815;52.334;20.890;2023-11-18T02:16:26;1.20;99.90
19359;DHT22;9815;52.334;20.890;2023-11-18T02:18:56;1.20;99.90
19359;DHT22;9815;52.334;20.890;2023-11-18T02:21:25;1.20;99.90
19359;DHT22;9815;52.334;20.890;2023-11-18T02:23:54;1.20;99.90
19359;DHT22;9815;52.334;20.890;2023-11-18T02:26:24;1.20;99.90
19359;DHT22;9815;52.334;20.890;2023-11-18T02:28:53;1.30;99.90
19359;DHT22;9815;52.334;20.890;2023-11-18T02:31:27;1.20;99.90
19359;DHT22;9815;52.334;20.890;2023-11-18T02:34:02;1.10;99.90
19359;DHT22;9815;52.334;20.890;2023-11-18T02:36:39;1.20;99.90
19359;DHT22;9815;52.334;20.890;2023-11-18T02:39:12;1.20;99.90
19359;DHT22;9815;52.334;20.890;2023-11-18T02:41:48;1.20;99.90
19359;DHT22;9815;52.334;20.890;2023-11-18T02:44:20;1.20;99.90
19359;DHT22;9815;52.334;20.890;2023-11-18T02:46:50;1.10;99.90
19359;DHT22;9815;52.334;20.890;2023-11-18T02:49:19;1.10;99.90
19359;DHT22;9815;52.334;20.890;2023-11-18T02:51:47;1.10;99.90
19359;DHT22;9815;52.334;20.890;2023-11-18T02:54:15;1.10;99.90
19359;DHT22;9815;52.334;20.890;2023-11-18T02:56:45;1.20;99.90
19359;DHT22;9815;52.334;20.890;2023-11-18T02:59:13;1.20;99.90
19359;DHT22;9815;52.334;20.890;2023-11-18T03:01:41;1.10;99.90
19359;DHT22;9815;52.334;20.890;2023-11-18T03:04:10;1.10;99.90
19359;DHT22;9815;52.334;20.890;2023-11-18T03:06:41;1.10;99.90
19359;DHT22;9815;52.334;20.890;2023-11-18T03:09:09;1.20;99.90
19359;DHT22;9815;52.334;20.890;2023-11-18T03:11:38;1.10;99.90
19359;DHT22;9815;52.334;20.890;2023-11-18T03:14:07;1.20;99.90
19359;DHT22;9815;52.334;20.890;2023-11-18T03:16:37;1.10;99.90
19359;DHT22;9815;52.334;20.890;2023-11-18T03:19:05;1.10;99.90
19359;DHT22;9815;52.334;20.890;2023-11-18T03:21:36;1.10;99.90
19359;DHT22;9815;52.334;20.890;2023-11-18T03:24:07;1.20;99.90
19359;DHT22;9815;52.334;20.890;2023-11-18T03:26:36;1.20;99.90
19359;DHT22;9815;52.334;20.890;2023-11-18T03:29:04;1.10;99.90
19359;DHT22;9815;52.334;20.890;2023-11-18T03:31:34;1.10;99.90
19359;DHT22;9815;52.334;20.890;2023-11-18T03:34:02;1.00;99.90
19359;DHT22;9815;52.334;20.890;2023-11-18T03:36:31;1.10;99.90
19359;DHT22;9815;52.334;20.890;2023-11-18T03:38:59;1.10;99.90
19359;DHT22;9815;52.334;20.890;2023-11-18T03:41:29;1.10;99.90
19359;DHT22;9815;52.334;20.890;2023-11-18T03:43:57;1.10;99.90
19359;DHT22;9815;52.334;20.890;2023-11-18T03:46:26;1.10;99.90
19359;DHT22;9815;52.334;20.890;2023-11-18T03:49:02;1.00;99.90
19359;DHT22;9815;52.334;20.890;2023-11-18T03:51:31;1.10;99.90
19359;DHT22;9815;52.334;20.890;2023-11-18T03:53:59;1.10;99.90
19359;DHT22;9815;52.334;20.890;2023-11-18T03:56:27;1.10;99.90
19359;DHT22;9815;52.334;20.890;2023-11-18T03:58:56;1.10;99.90
19359;DHT22;9815;52.334;20.890;2023-11-18T04:01:25;1.10;99.90
19359;DHT22;9815;52.334;20.890;2023-11-18T04:03:54;1.20;99.90
19359;DHT22;9815;52.334;20.890;2023-11-18T04:06:24;1.10;99.90
19359;DHT22;9815;52.334;20.890;2023-11-18T04:08:53;1.20;99.90
19359;DHT22;9815;52.334;20.890;2023-11-18T04:11:21;1.10;99.90
19359;DHT22;9815;52.334;20.890;2023-11-18T04:13:50;1.10;99.90
19359;DHT22;9815;52.334;20.890;2023-11-18T04:16:22;1.10;99.90
19359;DHT22;9815;52.334;20.890;2023-11-18T04:18:51;1.00;99.90
19359;DHT22;9815;52.334;20.890;2023-11-18T04:21:19;1.00;99.90
19359;DHT22;9815;52.334;20.890;2023-11-18T04:23:49;1.00;99.90
19359;DHT22;9815;52.334;20.890;2023-11-18T04:26:17;1.10;99.90
19359;DHT22;9815;52.334;20.890;2023-11-18T04:28:45;1.00;99.90
19359;DHT22;9815;52.334;20.890;2023-11-18T04:31:14;1.10;99.90
19359;DHT22;9815;52.334;20.890;2023-11-18T04:33:42;1.00;99.90
19359;DHT22;9815;52.334;20.890;2023-11-18T04:36:10;1.00;99.90
19359;DHT22;9815;52.334;20.890;2023-11-18T04:38:41;1.00;99.90
19359;DHT22;9815;52.334;20.890;2023-11-18T04:41:10;0.90;99.90
19359;DHT22;9815;52.334;20.890;2023-11-18T04:43:39;1.00;99.90
19359;DHT22;9815;52.334;20.890;2023-11-18T04:46:12;1.00;99.90
19359;DHT22;9815;52.334;20.890;2023-11-18T04:48:41;1.00;99.90
19359;DHT22;9815;52.334;20.890;2023-11-18T04:51:10;1.00;99.90
19359;DHT22;9815;52.334;20.890;2023-11-18T04:53:38;1.00;99.90
19359;DHT22;9815;52.334;20.890;2023-11-18T04:56:07;1.10;99.90
19359;DHT22;9815;52.334;20.890;2023-11-18T04:58:39;1.10;99.90
19359;DHT22;9815;52.334;20.890;2023-11-18T05:01:07;1.00;99.90
19359;DHT22;9815;52.334;20.890;2023-11-18T05:03:36;1.10;99.90
19359;DHT22;9815;52.334;20.890;2023-11-18T05:06:05;1.10;99.90
19359;DHT22;9815;52.334;20.890;2023-11-18T05:08:35;1.10;99.90
19359;DHT22;9815;52.334;20.890;2023-11-18T05:11:04;1.10;99.90
19359;DHT22;9815;52.334;20.890;2023-11-18T05:13:32;1.00;99.90
19359;DHT22;9815;52.334;20.890;2023-11-18T05:16:05;1.10;99.90
19359;DHT22;9815;52.334;20.890;2023-11-18T05:18:34;1.00;99.90
19359;DHT22;9815;52.334;20.890;2023-11-18T05:21:05;1.10;99.90
19359;DHT22;9815;52.334;20.890;2023-11-18T05:23:34;1.10;99.90
19359;DHT22;9815;52.334;20.890;2023-11-18T05:26:02;1.00;99.90
19359;DHT22;9815;52.334;20.890;2023-11-18T05:28:32;1.00;99.90
19359;DHT22;9815;52.334;20.890;2023-11-18T05:31:02;0.90;99.90
19359;DHT22;9815;52.334;20.890;2023-11-18T05:33:32;1.00;99.90
19359;DHT22;9815;52.334;20.890;2023-11-18T05:36:02;1.00;99.90
19359;DHT22;9815;52.334;20.890;2023-11-18T05:38:32;1.00;99.90
19359;DHT22;9815;52.334;20.890;2023-11-18T05:41:02;1.00;99.90
19359;DHT22;9815;52.334;20.890;2023-11-18T05:43:33;0.90;99.90
19359;DHT22;9815;52.334;20.890;2023-11-18T05:46:08;0.90;99.90
19359;DHT22;9815;52.334;20.890;2023-11-18T05:48:48;0.90;99.90
19359;DHT22;9815;52.334;20.890;2023-11-18T05:51:20;1.00;99.90
19359;DHT22;9815;52.334;20.890;2023-11-18T05:53:50;1.00;99.90
19359;DHT22;9815;52.334;20.890;2023-11-18T05:56:19;1.00;99.90
19359;DHT22;9815;52.334;20.890;2023-11-18T05:58:50;0.90;99.90
19359;DHT22;9815;52.334;20.890;2023-11-18T06:01:22;0.90;99.90
19359;DHT22;9815;52.334;20.890;2023-11-18T06:03:51;0.90;99.90
19359;DHT22;9815;52.334;20.890;2023-11-18T06:06:19;0.90;99.90
19359;DHT22;9815;52.334;20.890;2023-11-18T06:08:51;0.90;99.90
19359;DHT22;9815;52.334;20.890;2023-11-18T06:11:21;0.90;99.90
19359;DHT22;9815;52.334;20.890;2023-11-18T06:13:51;0.90;99.90
19359;DHT22;9815;52.334;20.890;2023-11-18T06:16:22;1.00;99.90
19359;DHT22;9815;52.334;20.890;2023-11-18T06:18:53;1.00;99.90
19359;DHT22;9815;52.334;20.890;2023-11-18T06:21:23;1.00;99.90
19359;DHT22;9815;52.334;20.890;2023-11-18T06:23:55;1.00;99.90
19359;DHT22;9815;52.334;20.890;2023-11-18T06:26:24;1.10;99.90
19359;DHT22;9815;52.334;20.890;2023-11-18T06:28:55;1.00;99.90
19359;DHT22;9815;52.334;20.890;2023-11-18T06:31:25;1.00;99.90
19359;DHT22;9815;52.334;20.890;2023-11-18T06:33:54;1.00;99.90
19359;DHT22;9815;52.334;20.890;2023-11-18T06:36:23;0.90;99.90
19359;DHT22;9815;52.334;20.890;2023-11-18T06:38:53;1.00;99.90
19359;DHT22;9815;52.334;20.890;2023-11-18T06:41:23;0.90;99.90
19359;DHT22;9815;52.334;20.890;2023-11-18T06:43:53;0.90;99.90
19359;DHT22;9815;52.334;20.890;2023-11-18T06:46:30;0.90;99.90
19359;DHT22;9815;52.334;20.890;2023-11-18T06:49:02;0.90;99.90
19359;DHT22;9815;52.334;20.890;2023-11-18T06:51:35;1.00;99.90
19359;DHT22;9815;52.334;20.890;2023-11-18T06:54:05;1.00;99.90
19359;DHT22;9815;52.334;20.890;2023-11-18T06:56:39;1.00;99.90
19359;DHT22;9815;52.334;20.890;2023-11-18T06:59:10;1.00;99.90
19359;DHT22;9815;52.334;20.890;2023-11-18T07:01:41;1.00;99.90
19359;DHT22;9815;52.334;20.890;2023-11-18T07:04:12;1.00;99.90
19359;DHT22;9815;52.334;20.890;2023-11-18T07:06:42;1.00;99.90
19359;DHT22;9815;52.334;20.890;2023-11-18T07:09:12;1.00;99.90
19359;DHT22;9815;52.334;20.890;2023-11-18T07:11:45;0.90;99.90
19359;DHT22;9815;52.334;20.890;2023-11-18T07:14:15;0.90;99.90
19359;DHT22;9815;52.334;20.890;2023-11-18T07:16:46;0.90;99.90
19359;DHT22;9815;52.334;20.890;2023-11-18T07:19:15;0.90;99.90
19359;DHT22;9815;52.334;20.890;2023-11-18T07:21:49;0.90;99.90
19359;DHT22;9815;52.334;20.890;2023-11-18T07:24:17;0.90;99.90
19359;DHT22;9815;52.334;20.890;2023-11-18T07:26:48;1.00;99.90
19359;DHT22;9815;52.334;20.890;2023-11-18T07:29:18;1.00;99.90
19359;DHT22;9815;52.334;20.890;2023-11-18T07:31:48;1.00;99.90
19359;DHT22;9815;52.334;20.890;2023-11-18T07:34:17;1.00;99.90
19359;DHT22;9815;52.334;20.890;2023-11-18T07:36:47;1.00;99.90
19359;DHT22;9815;52.334;20.890;2023-11-18T07:39:15;1.00;99.90
19359;DHT22;9815;52.334;20.890;2023-11-18T07:41:51;1.00;99.90
19359;DHT22;9815;52.334;20.890;2023-11-18T07:44:24;1.00;99.90
19359;DHT22;9815;52.334;20.890;2023-11-18T07:46:54;1.10;99.90
19359;DHT22;9815;52.334;20.890;2023-11-18T07:49:22;1.00;99.90
19359;DHT22;9815;52.334;20.890;2023-11-18T07:51:53;1.00;99.90
19359;DHT22;9815;52.334;20.890;2023-11-18T07:54:21;1.00;99.90
19359;DHT22;9815;52.334;20.890;2023-11-18T07:56:50;1.00;99.90
19359;DHT22;9815;52.334;20.890;2023-11-18T07:59:20;1.00;99.90
19359;DHT22;9815;52.334;20.890;2023-11-18T08:01:51;1.10;99.90
19359;DHT22;9815;52.334;20.890;2023-11-18T08:04:21;1.00;99.90
19359;DHT22;9815;52.334;20.890;2023-11-18T08:06:50;1.10;99.90
19359;DHT22;9815;52.334;20.890;2023-11-18T08:09:19;1.10;99.90
19359;DHT22;9815;52.334;20.890;2023-11-18T08:11:50;1.20;99.90
19359;DHT22;9815;52.334;20.890;2023-11-18T08:14:20;1.10;99.90
19359;DHT22;9815;52.334;20.890;2023-11-18T08:16:49;1.00;99.90
19359;DHT22;9815;52.334;20.890;2023-11-18T08:19:18;1.00;99.90
19359;DHT22;9815;52.334;20.890;2023-11-18T08:21:48;1.00;99.90
19359;DHT22;9815;52.334;20.890;2023-11-18T08:24:16;1.10;99.90
19359;DHT22;9815;52.334;20.890;2023-11-18T08:26:46;1.20;99.90
19359;DHT22;9815;52.334;20.890;2023-11-18T08:29:14;1.00;99.90
19359;DHT22;9815;52.334;20.890;2023-11-18T08:31:44;1.00;99.90
19359;DHT22;9815;52.334;20.890;2023-11-18T08:34:14;1.00;99.90
19359;DHT22;9815;52.334;20.890;2023-11-18T08:36:45;1.00;99.90
19359;DHT22;9815;52.334;20.890;2023-11-18T08:39:15;1.00;99.90
19359;DHT22;9815;52.334;20.890;2023-11-18T08:41:45;0.90;99.90
19359;DHT22;9815;52.334;20.890;2023-11-18T08:44:13;1.00;99.90
19359;DHT22;9815;52.334;20.890;2023-11-18T08:46:51;1.00;99.90
19359;DHT22;9815;52.334;20.890;2023-11-18T08:49:20;0.90;99.90
19359;DHT22;9815;52.334;20.890;2023-11-18T08:51:49;0.90;99.90
19359;DHT22;9815;52.334;20.890;2023-11-18T08:54:25;0.80;99.90
19359;DHT22;9815;52.334;20.890;2023-11-18T08:57:04;0.80;99.90
19359;DHT22;9815;52.334;20.890;2023-11-18T08:59:46;0.80;99.90
19359;DHT22;9815;52.334;20.890;2023-11-18T09:02:17;0.90;99.90
19359;DHT22;9815;52.334;20.890;2023-11-18T09:04:50;0.80;99.90
19359;DHT22;9815;52.334;20.890;2023-11-18T09:07:22;0.80;99.90
19359;DHT22;9815;52.334;20.890;2023-11-18T09:09:52;0.80;99.90
19359;DHT22;9815;52.334;20.890;2023-11-18T09:12:21;0.80;99.90
19359;DHT22;9815;52.334;20.890;2023-11-18T09:14:50;0.70;99.90
19359;DHT22;9815;52.334;20.890;2023-11-18T09:17:19;0.70;99.90
19359;DHT22;9815;52.334;20.890;2023-11-18T09:19:50;0.80;99.90
19359;DHT22;9815;52.334;20.890;2023-11-18T09:22:21;0.80;99.90
19359;DHT22;9815;52.334;20.890;2023-11-18T09:24:52;0.90;99.90
19359;DHT22;9815;52.334;20.890;2023-11-18T09:27:22;0.90;99.90
19359;DHT22;9815;52.334;20.890;2023-11-18T09:29:50;0.80;99.90
19359;DHT22;9815;52.334;20.890;2023-11-18T09:32:23;0.90;99.90
19359;DHT22;9815;52.334;20.890;2023-11-18T09:34:53;0.90;99.90
19359;DHT22;9815;52.334;20.890;2023-11-18T09:37:22;0.90;99.90
19359;DHT22;9815;52.334;20.890;2023-11-18T09:39:51;0.90;99.90
19359;DHT22;9815;52.334;20.890;2023-11-18T09:42:22;0.90;99.90
19359;DHT22;9815;52.334;20.890;2023-11-18T09:44:51;1.00;99.90
19359;DHT22;9815;52.334;20.890;2023-11-18T09:47:24;1.00;99.90
19359;DHT22;9815;52.334;20.890;2023-11-18T09:49:56;1.10;99.90
19359;DHT22;9815;52.334;20.890;2023-11-18T09:52:30;1.10;99.90
19359;DHT22;9815;52.334;20.890;2023-11-18T09:55:03;1.10;99.90
19359;DHT22;9815;52.334;20.890;2023-11-18T09:57:34;1.10;99.90
19359;DHT22;9815;52.334;20.890;2023-11-18T10:00:07;1.10;99.90
19359;DHT22;9815;52.334;20.890;2023-11-18T10:02:48;1.20;99.90
19359;DHT22;9815;52.334;20.890;2023-11-18T10:05:20;1.20;99.90
19359;DHT22;9815;52.334;20.890;2023-11-18T10:07:50;1.10;99.90
19359;DHT22;9815;52.334;20.890;2023-11-18T10:10:20;1.20;99.90
19359;DHT22;9815;52.334;20.890;2023-11-18T10:12:50;1.20;99.90
19359;DHT22;9815;52.334;20.890;2023-11-18T10:15:22;1.20;99.90
19359;DHT22;9815;52.334;20.890;2023-11-18T10:17:52;1.20;99.90
19359;DHT22;9815;52.334;20.890;2023-11-18T10:20:45;1.20;99.90
19359;DHT22;9815;52.334;20.890;2023-11-18T10:23:15;1.40;99.90
19359;DHT22;9815;52.334;20.890;2023-11-18T10:25:50;1.30;99.90
19359;DHT22;9815;52.334;20.890;2023-11-18T10:28:24;1.40;99.90
19359;DHT22;9815;52.334;20.890;2023-11-18T10:30:56;1.40;99.90
19359;DHT22;9815;52.334;20.890;2023-11-18T10:33:26;1.40;99.90
19359;DHT22;9815;52.334;20.890;2023-11-18T10:35:59;1.40;99.90
19359;DHT22;9815;52.334;20.890;2023-11-18T10:38:31;1.40;99.90
19359;DHT22;9815;52.334;20.890;2023-11-18T10:41:06;1.50;99.90
19359;DHT22;9815;52.334;20.890;2023-11-18T10:43:34;1.40;99.90
19359;DHT22;9815;52.334;20.890;2023-11-18T10:46:07;1.40;99.90
19359;DHT22;9815;52.334;20.890;2023-11-18T10:48:41;1.40;99.90
19359;DHT22;9815;52.334;20.890;2023-11-18T10:51:11;1.60;99.90
19359;DHT22;9815;52.334;20.890;2023-11-18T10:53:40;1.60;99.90
19359;DHT22;9815;52.334;20.890;2023-11-18T10:56:22;1.60;99.90
19359;DHT22;9815;52.334;20.890;2023-11-18T10:58:55;1.60;99.90
19359;DHT22;9815;52.334;20.890;2023-11-18T11:01:28;1.50;99.90
19359;DHT22;9815;52.334;20.890;2023-11-18T11:03:59;1.50;99.90
19359;DHT22;9815;52.334;20.890;2023-11-18T11:06:32;1.50;99.90
19359;DHT22;9815;52.334;20.890;2023-11-18T11:09:02;1.40;99.90
19359;DHT22;9815;52.334;20.890;2023-11-18T11:11:40;1.50;99.90
19359;DHT22;9815;52.334;20.890;2023-11-18T11:14:15;1.50;99.90
19359;DHT22;9815;52.334;20.890;2023-11-18T11:16:47;1.40;99.90
19359;DHT22;9815;52.334;20.890;2023-11-18T11:19:25;1.40;99.90
19359;DHT22;9815;52.334;20.890;2023-11-18T11:22:03;1.40;99.90
19359;DHT22;9815;52.334;20.890;2023-11-18T11:24:45;1.30;99.90
19359;DHT22;9815;52.334;20.890;2023-11-18T11:27:25;1.30;99.90
19359;DHT22;9815;52.334;20.890;2023-11-18T11:30:09;1.30;99.90
19359;DHT22;9815;52.334;20.890;2023-11-18T11:32:43;1.30;99.90
19359;DHT22;9815;52.334;20.890;2023-11-18T11:35:19;1.40;99.90
19359;DHT22;9815;52.334;20.890;2023-11-18T11:37:52;1.30;99.90
19359;DHT22;9815;52.334;20.890;2023-11-18T11:40:31;1.30;99.90
19359;DHT22;9815;52.334;20.890;2023-11-18T11:43:04;1.30;99.90
19359;DHT22;9815;52.334;20.890;2023-11-18T11:45:38;1.30;99.90
19359;DHT22;9815;52.334;20.890;2023-11-18T11:48:07;1.20;99.90
19359;DHT22;9815;52.334;20.890;2023-11-18T11:51:05;1.10;99.90
19359;DHT22;9815;52.334;20.890;2023-11-18T11:53:46;1.20;99.90
19359;DHT22;9815;52.334;20.890;2023-11-18T11:56:17;1.10;99.90
19359;DHT22;9815;52.334;20.890;2023-11-18T11:58:49;1.10;99.90
19359;DHT22;9815;52.334;20.890;2023-11-18T12:01:25;1.20;99.90
19359;DHT22;9815;52.334;20.890;2023-11-18T12:04:03;1.10;99.90
19359;DHT22;9815;52.334;20.890;2023-11-18T12:06:40;1.20;99.90
19359;DHT22;9815;52.334;20.890;2023-11-18T12:09:10;1.10;99.90
19359;DHT22;9815;52.334;20.890;2023-11-18T12:11:47;1.10;99.90
19359;DHT22;9815;52.334;20.890;2023-11-18T12:14:19;1.10;99.90
19359;DHT22;9815;52.334;20.890;2023-11-18T12:17:08;1.10;99.90
19359;DHT22;9815;52.334;20.890;2023-11-18T12:19:39;1.30;99.90
19359;DHT22;9815;52.334;20.890;2023-11-18T12:22:16;1.20;99.90
19359;DHT22;9815;52.334;20.890;2023-11-18T12:28:07;1.10;99.90
19359;DHT22;9815;52.334;20.890;2023-11-18T12:30:41;1.20;99.90
19359;DHT22;9815;52.334;20.890;2023-11-18T12:33:21;1.10;99.90
19359;DHT22;9815;52.334;20.890;2023-11-18T12:39:21;1.10;99.90
19359;DHT22;9815;52.334;20.890;2023-11-18T12:42:02;1.10;99.90
19359;DHT22;9815;52.334;20.890;2023-11-18T12:44:37;1.00;99.90
19359;DHT22;9815;52.334;20.890;2023-11-18T12:47:12;1.00;99.90
19359;DHT22;9815;52.334;20.890;2023-11-18T12:49:45;1.00;99.90
19359;DHT22;9815;52.334;20.890;2023-11-18T12:52:21;1.10;99.90
19359;DHT22;9815;52.334;20.890;2023-11-18T12:54:50;1.00;99.90
19359;DHT22;9815;52.334;20.890;2023-11-18T12:57:27;1.00;99.90
19359;DHT22;9815;52.334;20.890;2023-11-18T12:59:59;1.00;99.90
19359;DHT22;9815;52.334;20.890;2023-11-18T13:02:31;1.00;99.90
19359;DHT22;9815;52.334;20.890;2023-11-18T13:05:04;1.00;99.90
19359;DHT22;9815;52.334;20.890;2023-11-18T13:07:36;1.00;99.90
19359;DHT22;9815;52.334;20.890;2023-11-18T13:10:06;1.00;99.90
19359;DHT22;9815;52.334;20.890;2023-11-18T13:12:35;1.00;99.90
19359;DHT22;9815;52.334;20.890;2023-11-18T13:15:04;1.00;99.90
19359;DHT22;9815;52.334;20.890;2023-11-18T13:17:37;1.10;99.90
19359;DHT22;9815;52.334;20.890;2023-11-18T13:20:16;1.10;99.90
19359;DHT22;9815;52.334;20.890;2023-11-18T13:22:51;1.00;99.90
19359;DHT22;9815;52.334;20.890;2023-11-18T13:25:23;0.90;99.90
19359;DHT22;9815;52.334;20.890;2023-11-18T13:27:52;0.90;99.90
19359;DHT22;9815;52.334;20.890;2023-11-18T13:30:21;0.90;99.90
19359;DHT22;9815;52.334;20.890;2023-11-18T13:32:52;0.80;99.90
19359;DHT22;9815;52.334;20.890;2023-11-18T13:35:21;0.80;99.90
19359;DHT22;9815;52.334;20.890;2023-11-18T13:37:51;0.80;99.90
19359;DHT22;9815;52.334;20.890;2023-11-18T13:40:21;0.90;99.90
19359;DHT22;9815;52.334;20.890;2023-11-18T13:43:01;0.80;99.90
19359;DHT22;9815;52.334;20.890;2023-11-18T13:45:32;0.90;99.90
19359;DHT22;9815;52.334;20.890;2023-11-18T13:48:06;0.90;99.90
19359;DHT22;9815;52.334;20.890;2023-11-18T13:50:36;0.90;99.90
19359;DHT22;9815;52.334;20.890;2023-11-18T13:53:06;0.80;99.90
19359;DHT22;9815;52.334;20.890;2023-11-18T13:55:35;0.90;99.90
19359;DHT22;9815;52.334;20.890;2023-11-18T13:58:06;0.80;99.90
19359;DHT22;9815;52.334;20.890;2023-11-18T14:00:37;0.90;99.90
19359;DHT22;9815;52.334;20.890;2023-11-18T14:03:08;0.90;99.90
19359;DHT22;9815;52.334;20.890;2023-11-18T14:05:39;1.00;99.90
19359;DHT22;9815;52.334;20.890;2023-11-18T14:08:17;0.90;99.90
19359;DHT22;9815;52.334;20.890;2023-11-18T14:10:47;0.90;99.90
19359;DHT22;9815;52.334;20.890;2023-11-18T14:13:29;0.90;99.90
19359;DHT22;9815;52.334;20.890;2023-11-18T14:15:58;0.90;99.90
19359;DHT22;9815;52.334;20.890;2023-11-18T14:18:28;0.80;99.90
19359;DHT22;9815;52.334;20.890;2023-11-18T14:20:57;0.90;99.90
19359;DHT22;9815;52.334;20.890;2023-11-18T14:23:29;0.80;99.90
19359;DHT22;9815;52.334;20.890;2023-11-18T14:26:34;0.80;99.90
19359;DHT22;9815;52.334;20.890;2023-11-18T14:29:27;0.80;99.90
19359;DHT22;9815;52.334;20.890;2023-11-18T14:31:58;0.80;99.90
19359;DHT22;9815;52.334;20.890;2023-11-18T14:34:28;0.80;99.90
19359;DHT22;9815;52.334;20.890;2023-11-18T14:36:58;0.90;99.90
19359;DHT22;9815;52.334;20.890;2023-11-18T14:39:28;0.90;99.90
19359;DHT22;9815;52.334;20.890;2023-11-18T14:42:27;0.80;99.90
19359;DHT22;9815;52.334;20.890;2023-11-18T14:45:29;0.80;99.90
19359;DHT22;9815;52.334;20.890;2023-11-18T14:48:02;0.80;99.90
19359;DHT22;9815;52.334;20.890;2023-11-18T14:50:33;0.80;99.90
19359;DHT22;9815;52.334;20.890;2023-11-18T14:53:02;0.80;99.90
19359;DHT22;9815;52.334;20.890;2023-11-18T14:55:35;0.80;99.90
19359;DHT22;9815;52.334;20.890;2023-11-18T14:58:08;0.80;99.90
19359;DHT22;9815;52.334;20.890;2023-11-18T15:00:45;0.80;99.90
19359;DHT22;9815;52.334;20.890;2023-11-18T15:03:17;0.90;99.90
19359;DHT22;9815;52.334;20.890;2023-11-18T15:05:47;0.90;99.90
19359;DHT22;9815;52.334;20.890;2023-11-18T15:08:16;0.80;99.90
19359;DHT22;9815;52.334;20.890;2023-11-18T15:11:02;0.90;99.90
19359;DHT22;9815;52.334;20.890;2023-11-18T15:13:56;0.80;99.90
19359;DHT22;9815;52.334;20.890;2023-11-18T15:16:42;0.80;99.90
19359;DHT22;9815;52.334;20.890;2023-11-18T15:19:35;0.70;99.90
19359;DHT22;9815;52.334;20.890;2023-11-18T15:22:40;0.80;99.90
19359;DHT22;9815;52.334;20.890;2023-11-18T15:25:22;0.70;99.90
19359;DHT22;9815;52.334;20.890;2023-11-18T15:28:35;0.90;99.90
19359;DHT22;9815;52.334;20.890;2023-11-18T15:31:18;0.80;99.90
19359;DHT22;9815;52.334;20.890;2023-11-18T15:33:47;0.70;99.90
19359;DHT22;9815;52.334;20.890;2023-11-18T15:36:33;0.70;99.90
19359;DHT22;9815;52.334;20.890;2023-11-18T15:39:03;0.70;99.90
19359;DHT22;9815;52.334;20.890;2023-11-18T15:41:37;0.70;99.90
19359;DHT22;9815;52.334;20.890;2023-11-18T15:44:18;0.70;99.90
19359;DHT22;9815;52.334;20.890;2023-11-18T15:47:01;1.10;99.90
19359;DHT22;9815;52.334;20.890;2023-11-18T15:49:33;0.80;99.90
19359;DHT22;9815;52.334;20.890;2023-11-18T15:52:20;0.90;99.90
19359;DHT22;9815;52.334;20.890;2023-11-18T15:54:50;0.70;99.90
19359;DHT22;9815;52.334;20.890;2023-11-18T15:57:18;0.60;99.90
19359;DHT22;9815;52.334;20.890;2023-11-18T15:59:50;0.70;99.90
19359;DHT22;9815;52.334;20.890;2023-11-18T16:02:24;0.60;99.90
19359;DHT22;9815;52.334;20.890;2023-11-18T16:04:56;0.70;99.90
19359;DHT22;9815;52.334;20.890;2023-11-18T16:07:25;0.60;99.90
19359;DHT22;9815;52.334;20.890;2023-11-18T16:09:55;0.60;99.90
19359;DHT22;9815;52.334;20.890;2023-11-18T16:12:26;0.60;99.90
19359;DHT22;9815;52.334;20.890;2023-11-18T16:15:03;0.70;99.90
19359;DHT22;9815;52.334;20.890;2023-11-18T16:17:33;0.70;99.90
19359;DHT22;9815;52.334;20.890;2023-11-18T16:20:10;0.70;99.90
19359;DHT22;9815;52.334;20.890;2023-11-18T16:22:45;0.70;99.90